Time;durP1;ratioP1;P1;durP2;ratioP2;P2;SDS_P1;SDS_P2;PMS_P1;PMS_P2;Temp;Humidity;BMP_temperature;BMP_pressure;BME280_temperature;BME280_humidity;BME280_pressure;Samples;Min_cycle;Max_cycle;Signal;HPM_P1;HPM_P2
2022/11/04 00:01:33;;;;;;;18.35;8.88;;;10.70;99.90;;;;;;5072641;28;20040;-50
2022/11/04 00:03:59;;;;;;;12.77;8.60;;;10.70;99.90;;;;;;5072853;28;20090;-52
2022/11/04 00:06:25;;;;;;;12.73;8.45;;;10.70;99.90;;;;;;5072285;28;20029;-51
2022/11/04 00:08:53;;;;;;;14.35;9.35;;;10.70;99.90;;;;;;5070865;28;20094;-51
2022/11/04 00:14:05;;;;;;;12.48;9.85;;;10.70;99.90;;;;;;5072558;28;20485;-51
2022/11/04 00:19:14;;;;;;;17.95;11.95;;;10.60;99.90;;;;;;5072728;28;20039;-52
2022/11/04 00:29:58;;;;;;;18.52;12.23;;;10.20;99.90;;;;;;5072649;28;20071;-50
2022/11/04 00:35:09;;;;;;;19.98;12.88;;;10.00;99.90;;;;;;5072138;28;20059;-51
2022/11/04 00:37:39;;;;;;;17.70;11.48;;;9.90;99.90;;;;;;5072060;28;20032;-52
2022/11/04 00:40:06;;;;;;;16.35;11.40;;;9.80;99.90;;;;;;5072097;28;20024;-50
2022/11/04 00:42:32;;;;;;;24.98;14.02;;;9.90;99.90;;;;;;5072043;28;20072;-52
2022/11/04 00:44:58;;;;;;;21.38;12.95;;;9.80;99.90;;;;;;5071933;28;20055;-51
2022/11/04 00:47:24;;;;;;;21.95;14.05;;;9.80;99.90;;;;;;5071873;28;20519;-51
2022/11/04 00:49:50;;;;;;;20.58;12.40;;;9.70;99.90;;;;;;5071760;28;20035;-51
2022/11/04 00:52:16;;;;;;;22.40;13.60;;;9.70;99.90;;;;;;5071860;28;20056;-52
2022/11/04 00:54:41;;;;;;;25.98;14.68;;;9.70;99.90;;;;;;5071806;28;20078;-51
2022/11/04 00:57:14;;;;;;;19.20;13.43;;;9.80;99.90;;;;;;5071844;28;20031;-52
2022/11/04 00:59:40;;;;;;;20.45;13.70;;;9.80;99.90;;;;;;5071767;28;20027;-52
2022/11/04 01:02:08;;;;;;;22.48;15.50;;;9.70;99.90;;;;;;5071814;28;20021;-51
2022/11/04 01:04:33;;;;;;;21.92;15.20;;;9.80;99.90;;;;;;5071465;28;20028;-54
2022/11/04 01:07:00;;;;;;;19.98;14.90;;;9.70;99.90;;;;;;5071820;28;20028;-52
2022/11/04 01:09:25;;;;;;;19.45;14.23;;;9.70;99.90;;;;;;5071435;28;20075;-51
2022/11/04 01:11:51;;;;;;;21.77;14.82;;;9.60;99.90;;;;;;5071799;28;20044;-51
2022/11/04 01:14:17;;;;;;;26.13;15.68;;;9.60;99.90;;;;;;5071524;28;20020;-52
2022/11/04 01:16:43;;;;;;;19.73;15.30;;;9.60;99.90;;;;;;5071565;28;20028;-52
2022/11/04 01:19:09;;;;;;;26.50;16.55;;;9.60;99.90;;;;;;5071440;28;20077;-53
2022/11/04 01:21:35;;;;;;;26.30;14.93;;;9.60;99.90;;;;;;5071487;28;20397;-51
2022/11/04 01:24:01;;;;;;;20.42;14.35;;;9.60;99.90;;;;;;5071525;28;20111;-51
2022/11/04 01:26:28;;;;;;;23.67;16.20;;;9.70;99.90;;;;;;5071402;28;20081;-51
2022/11/04 01:28:55;;;;;;;22.38;15.73;;;9.70;99.90;;;;;;5070164;28;20025;-51
2022/11/04 01:31:25;;;;;;;24.55;13.70;;;9.70;99.90;;;;;;5071469;28;20020;-50
2022/11/04 01:33:52;;;;;;;16.10;10.65;;;10.00;99.90;;;;;;5071330;28;20032;-52
2022/11/04 01:36:19;;;;;;;12.13;7.18;;;10.60;99.90;;;;;;5069912;28;20115;-51
2022/11/04 01:38:45;;;;;;;8.52;5.90;;;11.00;99.90;;;;;;5071474;28;20036;-52
2022/11/04 01:41:19;;;;;;;8.32;6.20;;;11.10;99.90;;;;;;5071415;28;20028;-50
2022/11/04 01:43:58;;;;;;;9.85;6.45;;;11.10;99.90;;;;;;5071526;28;20107;-50
2022/11/04 01:46:45;;;;;;;10.77;5.68;;;11.30;99.90;;;;;;5071197;28;20033;-51
2022/11/04 01:49:17;;;;;;;9.02;5.53;;;11.30;99.90;;;;;;5075316;28;20021;-51
2022/11/04 01:51:45;;;;;;;14.02;6.07;;;11.50;99.90;;;;;;5075154;28;20082;-51
2022/11/04 01:54:11;;;;;;;10.32;6.80;;;11.50;99.90;;;;;;5075432;28;20017;-51
2022/11/04 01:56:38;;;;;;;8.35;6.07;;;11.50;99.90;;;;;;5075298;28;20059;-51
2022/11/04 01:59:10;;;;;;;10.90;6.97;;;11.50;99.90;;;;;;5075260;28;20020;-51
2022/11/04 02:01:35;;;;;;;13.00;6.43;;;11.50;99.90;;;;;;5075164;28;20035;-51
2022/11/04 02:06:51;;;;;;;9.45;7.40;;;11.50;99.90;;;;;;5075083;28;20369;-51
2022/11/04 02:09:18;;;;;;;8.82;6.47;;;11.50;99.90;;;;;;5073611;28;20529;-53
2022/11/04 02:14:30;;;;;;;13.20;7.80;;;11.40;99.90;;;;;;5075000;28;20035;-51
2022/11/04 02:17:17;;;;;;;11.77;7.22;;;11.50;99.90;;;;;;5074914;28;20032;-50
2022/11/04 02:20:21;;;;;;;11.02;7.55;;;11.40;99.90;;;;;;5073254;28;20521;-54
2022/11/04 02:22:53;;;;;;;11.70;7.53;;;11.40;99.90;;;;;;5074877;28;20056;-52
2022/11/04 02:25:31;;;;;;;11.60;7.72;;;11.40;99.90;;;;;;5074535;28;20028;-53
2022/11/04 02:28:22;;;;;;;10.50;7.03;;;11.40;99.90;;;;;;5074814;28;20035;-52
2022/11/04 02:30:55;;;;;;;13.63;7.95;;;11.40;99.90;;;;;;5058125;28;20036;-51
2022/11/04 02:33:27;;;;;;;10.77;7.18;;;11.40;99.90;;;;;;5074379;28;20063;-50
2022/11/04 02:36:15;;;;;;;12.50;7.05;;;11.40;99.90;;;;;;5074471;28;20033;-52
2022/11/04 02:38:40;;;;;;;12.00;7.93;;;11.40;99.90;;;;;;5074414;28;20115;-53
2022/11/04 02:41:22;;;;;;;19.67;7.70;;;11.40;99.90;;;;;;5074412;28;20095;-52
2022/11/04 02:43:56;;;;;;;13.82;7.10;;;11.30;99.90;;;;;;5074551;28;20048;-52
2022/11/04 02:46:41;;;;;;;8.32;6.80;;;11.20;99.90;;;;;;5074247;28;20025;-51
2022/11/04 02:49:16;;;;;;;12.63;7.75;;;11.20;99.90;;;;;;5074116;28;20024;-52
2022/11/04 02:51:52;;;;;;;11.02;7.38;;;11.10;99.90;;;;;;5074190;28;20533;-50
2022/11/04 02:54:35;;;;;;;13.07;8.07;;;11.00;99.90;;;;;;5073588;28;20090;-52
2022/11/04 02:57:06;;;;;;;10.77;8.43;;;11.00;99.90;;;;;;5074287;28;20024;-51
2022/11/04 02:59:48;;;;;;;11.40;7.75;;;10.90;99.90;;;;;;5072667;28;20456;-51
2022/11/04 03:02:43;;;;;;;12.95;7.82;;;10.80;99.90;;;;;;5074101;28;20020;-51
2022/11/04 03:05:14;;;;;;;14.90;8.23;;;10.80;99.90;;;;;;5071804;28;20068;-51
2022/11/04 03:07:42;;;;;;;22.85;8.07;;;10.80;99.90;;;;;;5073588;28;20069;-51
2022/11/04 03:10:18;;;;;;;9.60;6.90;;;10.70;99.90;;;;;;5073917;28;20492;-53
2022/11/04 03:12:53;;;;;;;12.43;7.72;;;10.60;99.90;;;;;;5074070;28;20060;-52
2022/11/04 03:15:32;;;;;;;14.90;8.85;;;10.50;99.90;;;;;;5073752;28;20031;-51
2022/11/04 03:18:16;;;;;;;11.55;8.02;;;10.40;99.90;;;;;;5073951;28;20522;-53
2022/11/04 03:20:45;;;;;;;8.18;5.80;;;10.30;99.90;;;;;;5073847;28;20158;-52
2022/11/04 03:23:11;;;;;;;7.40;5.45;;;10.30;99.90;;;;;;5073408;28;20024;-52
2022/11/04 03:25:45;;;;;;;8.05;6.20;;;10.30;99.90;;;;;;5073421;28;20024;-51
2022/11/04 03:28:24;;;;;;;10.80;5.68;;;10.20;99.90;;;;;;5073691;28;20107;-51
2022/11/04 03:30:56;;;;;;;5.95;4.85;;;10.10;99.90;;;;;;5073638;28;20047;-51
2022/11/04 03:33:52;;;;;;;9.10;4.60;;;10.20;99.90;;;;;;5073460;28;20402;-51
2022/11/04 03:36:18;;;;;;;6.78;4.57;;;10.10;99.90;;;;;;5071639;28;20498;-52
2022/11/04 03:38:44;;;;;;;6.57;5.22;;;10.10;99.90;;;;;;5073049;28;20044;-52
2022/11/04 03:41:23;;;;;;;6.30;4.97;;;10.00;99.90;;;;;;5073670;28;20364;-52
2022/11/04 03:43:49;;;;;;;6.53;5.05;;;10.00;99.90;;;;;;5073309;28;20554;-51
2022/11/04 03:46:14;;;;;;;7.05;4.40;;;10.00;99.90;;;;;;5073052;28;20030;-51
2022/11/04 03:48:43;;;;;;;4.65;4.05;;;10.00;99.90;;;;;;5071775;28;20024;-52
2022/11/04 03:51:09;;;;;;;4.20;3.80;;;10.00;99.90;;;;;;5073280;28;20052;-51
2022/11/04 03:53:35;;;;;;;6.38;4.25;;;10.00;99.90;;;;;;5073029;28;20020;-51
2022/11/04 03:56:15;;;;;;;5.97;3.65;;;10.00;99.90;;;;;;5072871;28;20036;-52
2022/11/04 03:58:53;;;;;;;3.80;3.25;;;10.00;99.90;;;;;;5073068;28;20461;-52
2022/11/04 04:01:24;;;;;;;5.53;3.42;;;9.90;99.90;;;;;;5071583;28;20606;-52
2022/11/04 04:04:00;;;;;;;4.43;3.90;;;9.90;99.90;;;;;;5073073;28;20365;-51
2022/11/04 04:06:33;;;;;;;5.93;3.65;;;10.00;99.90;;;;;;5072658;28;20036;-52
2022/11/04 04:09:18;;;;;;;4.70;4.13;;;10.00;99.90;;;;;;5072751;28;20055;-51
2022/11/04 04:12:00;;;;;;;4.75;4.22;;;9.90;99.90;;;;;;5072387;28;20037;-53
2022/11/04 04:14:41;;;;;;;8.18;4.15;;;9.90;99.90;;;;;;5072606;28;20032;-51
2022/11/04 04:17:31;;;;;;;7.30;4.47;;;9.90;99.90;;;;;;5072814;28;20031;-51
2022/11/04 04:20:04;;;;;;;7.57;4.30;;;9.90;99.90;;;;;;5072496;28;20111;-51
2022/11/04 04:27:29;;;;;;;4.25;3.85;;;9.90;99.90;;;;;;5072425;28;20036;-54
2022/11/04 04:28:37;;;;;;;4.63;4.10;;;9.70;99.90;;;;;;5072550;28;20059;-52
2022/11/04 04:31:03;;;;;;;7.93;4.25;;;9.80;99.90;;;;;;5072415;28;20027;-52
2022/11/04 04:33:29;;;;;;;4.90;4.20;;;9.70;99.90;;;;;;5072299;28;20430;-50
2022/11/04 04:35:56;;;;;;;7.22;4.15;;;9.70;99.90;;;;;;5072242;28;20364;-50
2022/11/04 04:47:01;;;;;;;6.45;4.03;;;9.50;99.90;;;;;;5070966;28;20530;-51
2022/11/04 04:49:33;;;;;;;7.85;5.32;;;9.60;99.90;;;;;;5070694;28;20025;-51
2022/11/04 04:52:01;;;;;;;8.07;4.85;;;9.60;99.90;;;;;;5071430;28;20037;-52
2022/11/04 04:54:27;;;;;;;4.70;3.70;;;9.50;99.90;;;;;;5069895;28;20059;-51
2022/11/04 04:56:53;;;;;;;6.88;3.95;;;9.50;99.90;;;;;;5070248;28;20052;-52
2022/11/04 04:59:18;;;;;;;5.93;4.03;;;9.50;99.90;;;;;;5071687;28;20032;-50
2022/11/04 05:01:44;;;;;;;4.65;4.05;;;9.50;99.90;;;;;;5071807;28;20052;-50
2022/11/04 05:04:10;;;;;;;9.13;4.88;;;9.50;99.90;;;;;;5071759;28;20043;-51
2022/11/04 05:06:35;;;;;;;5.22;4.05;;;9.40;99.90;;;;;;5070230;28;20051;-50
2022/11/04 05:09:01;;;;;;;5.80;4.53;;;9.40;99.90;;;;;;5071637;28;20045;-52
2022/11/04 05:11:27;;;;;;;5.18;3.78;;;9.50;99.90;;;;;;5071526;28;20025;-51
2022/11/04 05:13:53;;;;;;;6.05;3.63;;;9.50;99.90;;;;;;5071666;28;20349;-50
2022/11/04 05:16:18;;;;;;;7.20;4.43;;;9.50;99.90;;;;;;5071622;28;20039;-50
2022/11/04 05:18:44;;;;;;;5.63;3.50;;;9.40;99.90;;;;;;5071672;28;20025;-51
2022/11/04 05:21:12;;;;;;;5.85;4.32;;;9.40;99.90;;;;;;5071330;28;20033;-50
2022/11/04 05:23:38;;;;;;;4.82;3.55;;;9.40;99.90;;;;;;5071123;28;20133;-51
2022/11/04 05:26:03;;;;;;;10.77;5.82;;;9.50;99.90;;;;;;5071230;28;20488;-50
2022/11/04 05:28:29;;;;;;;4.32;3.17;;;9.40;99.90;;;;;;5071294;28;20376;-52
2022/11/04 05:30:55;;;;;;;8.07;3.30;;;9.40;99.90;;;;;;5071569;28;20086;-51
2022/11/04 05:33:21;;;;;;;3.92;2.92;;;9.40;99.90;;;;;;5071253;28;20028;-51
2022/11/04 05:35:46;;;;;;;4.50;3.50;;;9.40;99.90;;;;;;5071377;28;20027;-52
2022/11/04 05:38:12;;;;;;;7.10;4.63;;;9.30;99.90;;;;;;5071428;28;20491;-51
2022/11/04 05:40:38;;;;;;;3.40;2.85;;;9.30;99.90;;;;;;5071229;28;20112;-52
2022/11/04 05:43:03;;;;;;;3.42;2.92;;;9.30;99.90;;;;;;5071310;28;20423;-51
2022/11/04 05:45:29;;;;;;;5.75;3.00;;;9.30;99.90;;;;;;5071284;28;20124;-51
2022/11/04 05:48:03;;;;;;;5.63;2.60;;;9.30;99.90;;;;;;5071399;28;20024;-53
2022/11/04 05:50:30;;;;;;;2.45;2.30;;;9.30;99.90;;;;;;5071239;28;20426;-51
2022/11/04 05:52:57;;;;;;;3.72;2.90;;;9.30;99.90;;;;;;5071377;28;20025;-51
2022/11/04 05:55:23;;;;;;;3.20;2.40;;;9.30;99.90;;;;;;5069648;28;20024;-51
2022/11/04 05:57:48;;;;;;;4.78;2.40;;;9.30;99.90;;;;;;5069836;28;20571;-51
2022/11/04 06:00:14;;;;;;;6.13;4.72;;;9.20;99.90;;;;;;5071369;28;20063;-53
2022/11/04 06:02:40;;;;;;;2.45;2.22;;;9.20;99.90;;;;;;5071064;28;20026;-51
2022/11/04 06:05:07;;;;;;;3.95;3.05;;;9.20;99.90;;;;;;5071192;28;20058;-53
2022/11/04 06:07:32;;;;;;;3.60;3.10;;;9.20;99.90;;;;;;5070944;28;20020;-53
2022/11/04 06:09:59;;;;;;;3.15;2.60;;;9.10;99.90;;;;;;5070771;28;20101;-52
2022/11/04 06:12:24;;;;;;;2.88;2.67;;;9.10;99.90;;;;;;5070701;28;20029;-53
2022/11/04 06:14:50;;;;;;;3.40;2.63;;;9.10;99.90;;;;;;5070923;28;20066;-51
2022/11/04 06:17:19;;;;;;;2.25;2.05;;;9.20;99.90;;;;;;5071134;28;20407;-53
2022/11/04 06:19:45;;;;;;;3.63;2.25;;;9.20;99.90;;;;;;5070944;28;20027;-52
2022/11/04 06:22:12;;;;;;;2.33;1.92;;;9.20;99.90;;;;;;5071103;28;20020;-52
2022/11/04 06:24:37;;;;;;;3.85;3.33;;;9.10;99.90;;;;;;5070731;28;20634;-52
2022/11/04 06:27:03;;;;;;;3.15;2.28;;;9.10;99.90;;;;;;5070770;28;20107;-52
2022/11/04 06:29:29;;;;;;;4.57;3.25;;;9.10;99.90;;;;;;5070675;28;20107;-51
2022/11/04 06:31:55;;;;;;;6.90;3.40;;;9.10;99.90;;;;;;5070848;28;20123;-52
2022/11/04 06:34:20;;;;;;;13.50;12.25;;;9.10;99.90;;;;;;5073754;28;20040;-52
2022/11/04 06:36:48;;;;;;;5.97;3.30;;;9.10;99.90;;;;;;5073105;28;20039;-51
2022/11/04 06:39:14;;;;;;;5.28;3.50;;;9.00;99.90;;;;;;5074518;28;20028;-52
2022/11/04 06:41:40;;;;;;;3.42;2.92;;;8.90;99.90;;;;;;5074213;28;20020;-51
2022/11/04 06:44:05;;;;;;;3.83;2.97;;;8.90;99.90;;;;;;5074363;28;20031;-50
2022/11/04 06:46:37;;;;;;;4.18;3.50;;;9.00;99.90;;;;;;5074108;28;20199;-51
2022/11/04 06:49:05;;;;;;;7.85;3.85;;;9.00;99.90;;;;;;5073082;28;20021;-51
2022/11/04 06:51:32;;;;;;;3.60;3.28;;;9.00;99.90;;;;;;5074057;28;20094;-51
2022/11/04 06:53:57;;;;;;;5.85;2.90;;;9.10;99.90;;;;;;5074205;28;20021;-51
2022/11/04 06:56:23;;;;;;;5.25;3.40;;;9.20;99.90;;;;;;5073818;28;20632;-51
2022/11/04 06:58:50;;;;;;;4.53;3.33;;;9.10;99.90;;;;;;5073811;28;20031;-54
2022/11/04 07:01:17;;;;;;;4.10;3.60;;;9.10;99.90;;;;;;5074145;28;20032;-51
2022/11/04 07:03:43;;;;;;;7.40;3.20;;;9.10;99.90;;;;;;5074191;28;20029;-50
2022/11/04 07:06:10;;;;;;;3.92;2.67;;;9.20;99.90;;;;;;5073884;28;20479;-55
2022/11/04 07:08:36;;;;;;;3.58;2.95;;;9.00;99.90;;;;;;5073704;28;20350;-52
2022/11/04 07:11:02;;;;;;;3.30;2.80;;;9.00;99.90;;;;;;5073894;28;20411;-52
2022/11/04 07:13:28;;;;;;;2.60;2.40;;;9.00;99.90;;;;;;5073673;28;20368;-51
2022/11/04 07:15:54;;;;;;;4.50;3.00;;;9.00;99.90;;;;;;5073608;28;20089;-51
2022/11/04 07:18:19;;;;;;;6.10;3.40;;;9.00;99.90;;;;;;5072365;28;20468;-50
2022/11/04 07:20:46;;;;;;;4.28;3.40;;;9.10;99.90;;;;;;5072485;28;20128;-50
2022/11/04 07:23:11;;;;;;;6.93;3.25;;;9.00;99.90;;;;;;5072371;28;20031;-50
2022/11/04 07:25:37;;;;;;;5.00;3.45;;;9.00;99.90;;;;;;5072279;28;20434;-50
2022/11/04 07:28:03;;;;;;;3.83;3.42;;;9.00;99.90;;;;;;5072119;28;20009;-50
2022/11/04 07:30:28;;;;;;;7.85;3.97;;;8.90;99.90;;;;;;5072139;28;20070;-51
2022/11/04 07:32:54;;;;;;;5.10;3.60;;;8.90;99.90;;;;;;5070887;28;20035;-53
2022/11/04 07:35:19;;;;;;;8.07;3.83;;;8.80;99.90;;;;;;5070765;28;20024;-50
2022/11/04 07:37:45;;;;;;;4.38;3.60;;;8.80;99.90;;;;;;5069510;28;20033;-50
2022/11/04 07:40:11;;;;;;;4.18;2.83;;;8.70;99.90;;;;;;5070375;28;20029;-50
2022/11/04 07:42:37;;;;;;;3.55;3.10;;;8.80;99.90;;;;;;5052514;28;20131;-51
2022/11/04 07:45:08;;;;;;;3.28;2.60;;;8.90;99.90;;;;;;5069966;28;20099;-52
2022/11/04 07:47:34;;;;;;;6.72;2.38;;;9.00;99.90;;;;;;5071650;28;20220;-51
2022/11/04 07:49:59;;;;;;;3.30;2.80;;;9.00;99.90;;;;;;5071522;28;20416;-51
2022/11/04 07:52:25;;;;;;;4.20;2.45;;;9.00;99.90;;;;;;5069767;28;20021;-52
2022/11/04 07:54:51;;;;;;;2.33;2.13;;;9.10;99.90;;;;;;5071857;28;20031;-51
2022/11/04 07:57:16;;;;;;;5.40;3.42;;;9.00;99.90;;;;;;5071864;28;20348;-54
2022/11/04 07:59:42;;;;;;;3.45;2.20;;;9.00;99.90;;;;;;5071591;28;20443;-51
2022/11/04 08:02:09;;;;;;;2.53;2.33;;;9.10;99.90;;;;;;5071763;28;20031;-50
2022/11/04 08:04:35;;;;;;;3.58;2.45;;;9.00;99.90;;;;;;5071309;28;20024;-53
2022/11/04 08:07:01;;;;;;;8.48;3.47;;;9.00;99.90;;;;;;5071527;28;20035;-50
2022/11/04 08:09:27;;;;;;;8.63;3.97;;;9.00;99.90;;;;;;5069959;28;20047;-51
2022/11/04 08:11:52;;;;;;;14.55;6.93;;;8.90;99.90;;;;;;5071449;28;20025;-50
2022/11/04 08:14:18;;;;;;;15.93;6.70;;;8.80;99.90;;;;;;5071252;28;20028;-51
2022/11/04 08:16:44;;;;;;;15.55;6.57;;;8.80;99.90;;;;;;5071792;28;20364;-50
2022/11/04 08:19:10;;;;;;;99.03;30.88;;;8.80;99.90;;;;;;5071188;28;20032;-50
2022/11/04 08:21:35;;;;;;;116.93;38.53;;;8.70;99.90;;;;;;5071173;28;20115;-52
2022/11/04 08:24:02;;;;;;;49.22;15.80;;;8.70;99.90;;;;;;5071215;28;20602;-50
2022/11/04 08:26:28;;;;;;;15.18;6.40;;;8.60;99.90;;;;;;5071056;28;20021;-50
2022/11/04 08:28:54;;;;;;;24.80;9.80;;;8.70;99.90;;;;;;5071278;28;20088;-51
2022/11/04 08:31:25;;;;;;;4.75;2.60;;;8.70;99.90;;;;;;5070991;28;20020;-51
2022/11/04 08:33:52;;;;;;;35.65;13.77;;;8.70;99.90;;;;;;5070945;28;20021;-50
2022/11/04 08:36:23;;;;;;;34.75;14.00;;;8.70;99.90;;;;;;5071013;28;20082;-50
2022/11/04 08:38:49;;;;;;;31.65;11.88;;;8.60;99.90;;;;;;5070796;28;20121;-51
2022/11/04 08:41:18;;;;;;;9.60;5.50;;;8.60;99.90;;;;;;5069684;28;20550;-51
2022/11/04 08:43:45;;;;;;;9.05;4.78;;;8.60;99.90;;;;;;5070879;28;20445;-51
2022/11/04 08:46:11;;;;;;;2.78;2.50;;;8.70;99.90;;;;;;5070784;28;20024;-51
2022/11/04 08:48:39;;;;;;;8.82;5.70;;;8.60;99.90;;;;;;5070566;28;20020;-50
2022/11/04 08:51:06;;;;;;;7.35;3.17;;;8.60;99.90;;;;;;5071065;28;20024;-51
2022/11/04 08:53:32;;;;;;;7.93;4.32;;;8.70;99.90;;;;;;5070293;28;20029;-50
2022/11/04 08:55:58;;;;;;;2.20;2.03;;;8.70;99.90;;;;;;5070402;28;20024;-51
2022/11/04 08:58:24;;;;;;;2.05;1.95;;;8.70;99.90;;;;;;5070553;28;20060;-50
2022/11/04 09:00:50;;;;;;;2.72;2.33;;;8.80;99.90;;;;;;5070575;28;20081;-52
2022/11/04 09:03:16;;;;;;;3.60;2.97;;;8.70;99.90;;;;;;5070561;28;20107;-54
2022/11/04 09:05:46;;;;;;;2.13;1.80;;;8.70;99.90;;;;;;5071615;28;20131;-52
2022/11/04 09:08:16;;;;;;;11.00;5.38;;;8.70;99.90;;;;;;5071157;28;20044;-55
2022/11/04 09:10:46;;;;;;;4.93;2.90;;;8.70;99.90;;;;;;5070758;28;20116;-52
2022/11/04 09:13:14;;;;;;;8.13;3.83;;;8.70;99.90;;;;;;5069922;28;20029;-52
2022/11/04 09:15:40;;;;;;;6.97;3.60;;;8.60;99.90;;;;;;5069434;28;20111;-53
2022/11/04 09:18:07;;;;;;;2.47;2.25;;;8.70;99.90;;;;;;5071075;28;20102;-52
2022/11/04 09:20:33;;;;;;;4.07;2.63;;;8.70;99.90;;;;;;5070622;28;20024;-51
2022/11/04 09:22:59;;;;;;;4.88;2.20;;;8.70;99.90;;;;;;5071095;28;20056;-54
2022/11/04 09:25:25;;;;;;;7.45;2.65;;;8.80;99.90;;;;;;5070911;28;20060;-51
2022/11/04 09:27:50;;;;;;;4.53;2.08;;;8.70;99.90;;;;;;5071165;28;20033;-51
2022/11/04 09:30:16;;;;;;;4.65;2.03;;;8.70;99.90;;;;;;5071494;28;20360;-52
2022/11/04 09:32:42;;;;;;;3.90;2.10;;;8.70;99.90;;;;;;5071353;28;20471;-52
2022/11/04 09:35:08;;;;;;;2.35;2.15;;;8.80;99.90;;;;;;5071410;28;20032;-51
2022/11/04 09:37:33;;;;;;;4.63;2.55;;;8.60;99.90;;;;;;5071287;28;20020;-51
2022/11/04 09:39:59;;;;;;;3.65;2.17;;;8.70;99.90;;;;;;5071490;28;20349;-54
2022/11/04 09:42:36;;;;;;;3.92;2.33;;;8.70;99.90;;;;;;5071436;28;20031;-51
2022/11/04 09:45:17;;;;;;;2.13;1.95;;;8.80;99.90;;;;;;5071241;28;20025;-51
2022/11/04 09:47:46;;;;;;;2.63;1.60;;;8.70;99.90;;;;;;5051362;28;20555;-51
2022/11/04 09:50:26;;;;;;;4.85;2.30;;;8.70;99.90;;;;;;5059156;28;20352;-50
2022/11/04 09:53:07;;;;;;;4.70;1.83;;;8.60;99.90;;;;;;5071425;28;20418;-51
2022/11/04 09:55:50;;;;;;;3.00;2.00;;;8.60;99.90;;;;;;5070952;28;20471;-52
2022/11/04 09:58:16;;;;;;;3.70;2.83;;;8.50;99.90;;;;;;5070559;28;20028;-52
2022/11/04 10:01:05;;;;;;;3.42;2.50;;;8.50;99.90;;;;;;5070241;28;20041;-50
2022/11/04 10:03:46;;;;;;;5.97;4.03;;;8.60;99.90;;;;;;5069817;28;20369;-51
2022/11/04 10:06:57;;;;;;;5.28;3.60;;;8.60;99.90;;;;;;5070034;28;20024;-61
2022/11/04 10:09:28;;;;;;;7.70;4.82;;;8.50;99.90;;;;;;5046567;28;20048;-51
2022/11/04 10:12:28;;;;;;;18.88;7.88;;;8.40;99.90;;;;;;5046153;28;20051;-54
2022/11/04 10:14:54;;;;;;;14.30;9.02;;;8.40;99.90;;;;;;5036065;28;20029;-50
2022/11/04 10:17:47;;;;;;;10.10;5.10;;;8.30;99.90;;;;;;5042918;28;20473;-52
2022/11/04 10:20:42;;;;;;;8.10;4.93;;;8.30;99.90;;;;;;5052568;28;20037;-51
2022/11/04 10:23:32;;;;;;;7.22;4.20;;;8.30;99.90;;;;;;5062526;28;20033;-52
2022/11/04 10:26:07;;;;;;;6.40;3.88;;;8.30;99.90;;;;;;5062759;28;20608;-56
2022/11/04 10:28:40;;;;;;;11.38;5.90;;;8.30;99.90;;;;;;5071669;28;20074;-51
2022/11/04 10:31:11;;;;;;;7.43;3.58;;;8.20;99.90;;;;;;5083412;28;20099;-53
2022/11/04 10:33:39;;;;;;;5.65;3.85;;;8.20;99.90;;;;;;5082548;28;20111;-51
2022/11/04 10:36:08;;;;;;;9.95;6.55;;;8.10;99.90;;;;;;5082937;28;20433;-55
2022/11/04 10:38:47;;;;;;;7.90;4.88;;;8.10;99.90;;;;;;5080379;28;20028;-55
2022/11/04 10:41:19;;;;;;;2.58;2.35;;;8.10;99.90;;;;;;5061587;28;20280;-50
2022/11/04 10:43:46;;;;;;;3.55;2.83;;;8.10;99.90;;;;;;5062555;28;20633;-53
2022/11/04 10:46:51;;;;;;;2.47;2.00;;;8.00;99.90;;;;;;5061992;28;20035;-55
2022/11/04 10:49:48;;;;;;;3.63;2.22;;;7.90;99.90;;;;;;5026912;28;20128;-56
2022/11/04 10:52:15;;;;;;;2.72;2.10;;;7.80;99.90;;;;;;5042729;28;20221;-56
2022/11/04 10:54:46;;;;;;;2.75;2.13;;;7.90;99.90;;;;;;5043636;28;20028;-51
2022/11/04 10:57:19;;;;;;;2.50;2.30;;;7.90;99.90;;;;;;5062589;28;20111;-51
2022/11/04 10:59:57;;;;;;;2.72;2.47;;;7.90;99.90;;;;;;5062770;28;20082;-51
2022/11/04 11:02:46;;;;;;;6.07;2.72;;;7.90;99.90;;;;;;5062088;28;20036;-51
2022/11/04 11:05:18;;;;;;;4.40;2.40;;;7.90;99.90;;;;;;5062476;28;20404;-51
2022/11/04 11:07:44;;;;;;;101.32;68.50;;;7.90;99.90;;;;;;5061347;28;20057;-52
2022/11/04 11:10:26;;;;;;;6.15;4.82;;;7.90;99.90;;;;;;5062150;28;20097;-50
2022/11/04 11:13:01;;;;;;;4.90;3.00;;;8.00;99.90;;;;;;5070289;28;20071;-50
2022/11/04 11:15:34;;;;;;;4.43;2.40;;;8.00;99.90;;;;;;5073287;28;20107;-52
2022/11/04 11:18:00;;;;;;;;;;;7.90;99.90;;;;;;5073155;28;20367;-51
2022/11/04 11:20:26;;;;;;;4.47;2.00;;;7.90;99.90;;;;;;5072206;28;19904;-50
2022/11/04 11:22:53;;;;;;;2.83;1.90;;;7.90;99.90;;;;;;5072827;28;20024;-51
2022/11/04 11:25:29;;;;;;;2.58;2.38;;;7.90;99.90;;;;;;5073210;28;20025;-51
2022/11/04 11:28:05;;;;;;;6.57;4.82;;;7.90;99.90;;;;;;5073353;28;20021;-51
2022/11/04 11:30:43;;;;;;;3.47;2.45;;;7.90;99.90;;;;;;5073275;28;20025;-51
2022/11/04 11:33:28;;;;;;;4.05;2.63;;;7.80;99.90;;;;;;5073507;28;20391;-51
2022/11/04 11:36:11;;;;;;;2.97;2.20;;;7.70;99.90;;;;;;5073037;28;20384;-51
2022/11/04 11:38:38;;;;;;;2.75;2.40;;;7.60;99.90;;;;;;5073483;28;20025;-52
2022/11/04 11:41:12;;;;;;;2.13;1.90;;;7.50;99.90;;;;;;5073247;28;20107;-52
2022/11/04 11:43:44;;;;;;;13.25;9.40;;;7.60;99.90;;;;;;5073336;28;20025;-53
2022/11/04 11:46:11;;;;;;;1.90;1.80;;;7.60;99.90;;;;;;5072791;28;20562;-50
2022/11/04 11:48:50;;;;;;;6.45;4.40;;;7.60;99.90;;;;;;5073289;28;20035;-53
2022/11/04 11:51:26;;;;;;;8.15;3.70;;;7.50;99.90;;;;;;5072921;28;20568;-52
2022/11/04 11:54:28;;;;;;;9.73;5.80;;;7.40;99.90;;;;;;5073113;28;20037;-51
2022/11/04 11:56:56;;;;;;;2.65;2.40;;;7.40;99.90;;;;;;5073039;28;20028;-51
2022/11/04 11:59:48;;;;;;;14.98;6.28;;;7.30;99.90;;;;;;5037971;28;20060;-50
2022/11/04 12:02:46;;;;;;;3.67;2.75;;;7.30;99.90;;;;;;5017800;28;20500;-54
2022/11/04 12:05:13;;;;;;;2.97;2.60;;;7.40;99.90;;;;;;5026410;28;20029;-51
2022/11/04 12:07:54;;;;;;;3.38;1.67;;;7.30;99.90;;;;;;5027904;28;20033;-51
2022/11/04 12:10:27;;;;;;;4.20;1.83;;;7.20;99.90;;;;;;5026657;28;20103;-51
2022/11/04 12:13:27;;;;;;;2.22;1.95;;;7.30;99.90;;;;;;5018958;28;20083;-54
2022/11/04 12:16:26;;;;;;;1.58;1.40;;;7.20;99.90;;;;;;4976629;28;20036;-52
2022/11/04 12:19:01;;;;;;;2.85;2.65;;;7.00;99.90;;;;;;5026811;28;20061;-51
2022/11/04 12:21:35;;;;;;;2.45;2.25;;;6.90;99.90;;;;;;5029899;28;20740;-55
2022/11/04 12:24:13;;;;;;;2.83;1.88;;;6.90;99.90;;;;;;5028271;28;20033;-53
2022/11/04 12:27:05;;;;;;;3.38;2.17;;;6.90;99.90;;;;;;5042610;28;20476;-52
2022/11/04 12:29:51;;;;;;;1.52;1.42;;;6.80;99.90;;;;;;5043904;28;20491;-52
2022/11/04 12:32:25;;;;;;;3.90;2.28;;;6.70;99.90;;;;;;5019911;28;20029;-53
2022/11/04 12:35:22;;;;;;;5.50;1.95;;;6.60;99.90;;;;;;5021354;28;20131;-52
2022/11/04 12:38:14;;;;;;;1.55;1.45;;;6.40;99.90;;;;;;5019813;28;20037;-51
2022/11/04 12:41:09;;;;;;;3.47;1.90;;;6.30;99.90;;;;;;5026747;28;20112;-51
2022/11/04 12:43:43;;;;;;;34.30;12.60;;;6.10;99.90;;;;;;5027323;28;20041;-51
2022/11/04 12:46:45;;;;;;;3.38;3.05;;;5.80;99.90;;;;;;5032498;28;20043;-50
2022/11/04 12:49:20;;;;;;;2.20;2.00;;;5.50;99.90;;;;;;5031407;28;20053;-50
2022/11/04 12:51:49;;;;;;;3.65;2.20;;;5.30;99.90;;;;;;5030843;28;20412;-52
2022/11/04 12:54:35;;;;;;;22.92;9.05;;;5.20;99.90;;;;;;5034464;28;20372;-51
2022/11/04 12:57:29;;;;;;;8.23;6.13;;;5.00;99.90;;;;;;5027418;28;20040;-53
2022/11/04 13:00:05;;;;;;;2.30;2.10;;;5.00;99.90;;;;;;5023550;28;20041;-51
2022/11/04 13:02:41;;;;;;;2.15;2.05;;;4.90;99.90;;;;;;5025419;28;21050;-50
2022/11/04 13:05:26;;;;;;;3.13;2.85;;;4.90;99.90;;;;;;5024010;28;20594;-52
2022/11/04 13:08:16;;;;;;;7.38;3.30;;;4.90;99.90;;;;;;5016828;28;20040;-51
2022/11/04 13:10:44;;;;;;;1.40;1.40;;;4.90;99.90;;;;;;4984454;28;20043;-53
2022/11/04 13:13:12;;;;;;;2.05;1.95;;;4.90;99.90;;;;;;5022939;28;20037;-54
2022/11/04 13:15:47;;;;;;;3.50;3.20;;;4.90;99.90;;;;;;5020716;28;20257;-51
2022/11/04 13:18:18;;;;;;;1.73;1.63;;;4.80;99.90;;;;;;5033822;28;20109;-55
2022/11/04 13:20:58;;;;;;;2.28;2.08;;;4.90;99.90;;;;;;5027348;28;20044;-51
2022/11/04 13:23:38;;;;;;;2.55;2.35;;;4.70;99.90;;;;;;5026889;28;20508;-51
2022/11/04 13:26:08;;;;;;;1.77;1.70;;;4.80;99.90;;;;;;5015309;28;20041;-54
2022/11/04 13:28:39;;;;;;;2.20;2.10;;;4.80;99.90;;;;;;5025719;28;20033;-52
2022/11/04 13:31:11;;;;;;;3.17;2.28;;;4.80;99.90;;;;;;5022325;28;20036;-52
2022/11/04 13:34:23;;;;;;;2.70;2.40;;;4.80;99.90;;;;;;5023978;28;20380;-52
2022/11/04 13:37:06;;;;;;;3.83;2.55;;;4.90;99.90;;;;;;5020304;28;20032;-52
2022/11/04 13:39:41;;;;;;;2.65;2.15;;;4.90;99.90;;;;;;5027154;28;20032;-54
2022/11/04 13:42:06;;;;;;;2.08;1.98;;;4.90;99.90;;;;;;5026137;28;20024;-52
2022/11/04 13:44:41;;;;;;;2.33;2.20;;;4.90;99.90;;;;;;5022328;28;20496;-55
2022/11/04 13:47:18;;;;;;;2.97;1.60;;;5.00;99.90;;;;;;5026769;28;20655;-52
2022/11/04 13:49:50;;;;;;;4.78;1.90;;;5.10;99.90;;;;;;5019578;28;20044;-52